createdAt,value
2016-09-25T00:00:21.689Z,1006.29
2016-09-25T00:00:48.198Z,1006.21
2016-09-25T00:01:09.919Z,1006.31
2016-09-25T00:01:31.657Z,1006.34
2016-09-25T00:01:53.411Z,1006.15
2016-09-25T00:02:15.184Z,1006.24
2016-09-25T00:02:36.912Z,1006.24
2016-09-25T00:02:58.627Z,1006.25
2016-09-25T00:03:20.363Z,1006.39
2016-09-25T00:03:43.106Z,1006.25
2016-09-25T00:04:04.921Z,1005.97
2016-09-25T00:04:26.620Z,1005.96
2016-09-25T00:04:48.348Z,1006.08
2016-09-25T00:05:10.087Z,1006.00
2016-09-25T00:05:31.824Z,1006.06
2016-09-25T00:05:53.583Z,1006.18
2016-09-25T00:06:15.318Z,1006.36
2016-09-25T00:06:37.168Z,1006.41
2016-09-25T00:06:58.886Z,1006.46
2016-09-25T00:07:20.698Z,1006.42
2016-09-25T00:07:42.416Z,1006.30
2016-09-25T00:08:04.179Z,1006.18
2016-09-25T00:08:25.941Z,1006.21
2016-09-25T00:08:47.669Z,1006.11
2016-09-25T00:09:09.395Z,1006.16
2016-09-25T00:09:32.124Z,1006.01
2016-09-25T00:09:53.846Z,1006.10
2016-09-25T00:10:15.597Z,1006.06
2016-09-25T00:10:37.317Z,1006.18
2016-09-25T00:10:59.078Z,1006.12
2016-09-25T00:11:20.791Z,1006.26
2016-09-25T00:11:42.521Z,1006.26
2016-09-25T00:12:04.243Z,1006.19
2016-09-25T00:12:25.981Z,1006.07
2016-09-25T00:13:18.848Z,1006.13
2016-09-25T00:13:40.576Z,1006.10
2016-09-25T00:14:02.310Z,1006.02
2016-09-25T00:14:24.067Z,1006.10
2016-09-25T00:14:45.818Z,1006.31
2016-09-25T00:15:12.316Z,1006.21
2016-09-25T00:15:34.048Z,1006.18
2016-09-25T00:15:55.792Z,1006.07
2016-09-25T00:16:17.523Z,1006.07
2016-09-25T00:16:39.280Z,1006.18
2016-09-25T00:17:01.033Z,1006.23
2016-09-25T00:17:22.778Z,1006.17
2016-09-25T00:17:44.502Z,1006.12
2016-09-25T00:18:10.998Z,1006.10
2016-09-25T00:18:32.755Z,1006.07
2016-09-25T00:18:54.512Z,1006.13
2016-09-25T00:19:16.240Z,1006.11
2016-09-25T00:19:37.962Z,1006.16
2016-09-25T00:20:04.473Z,1006.01
2016-09-25T00:20:26.262Z,1005.97
2016-09-25T00:20:47.988Z,1006.01
2016-09-25T00:21:09.709Z,1006.09
2016-09-25T00:21:31.427Z,1006.12
2016-09-25T00:22:24.249Z,1006.01
2016-09-25T00:22:45.974Z,1006.23
2016-09-25T00:23:07.731Z,1006.06
2016-09-25T00:23:29.443Z,1006.02
2016-09-25T00:23:51.167Z,1006.10
2016-09-25T00:24:12.901Z,1006.21
2016-09-25T00:24:34.630Z,1006.21
2016-09-25T00:24:56.368Z,1006.19
2016-09-25T00:25:18.086Z,1006.06
2016-09-25T00:25:41.814Z,1006.06
2016-09-25T00:26:03.536Z,1005.95
2016-09-25T00:26:30.044Z,1005.94
2016-09-25T00:26:51.779Z,1006.03
2016-09-25T00:27:13.506Z,1006.05
2016-09-25T00:27:35.222Z,1005.98
2016-09-25T00:27:56.950Z,1006.19
2016-09-25T00:28:18.672Z,1006.18
2016-09-25T00:28:40.397Z,1006.32
2016-09-25T00:29:02.178Z,1006.07
2016-09-25T00:29:23.911Z,1006.09
2016-09-25T00:29:45.635Z,1006.18
2016-09-25T00:30:07.362Z,1006.12
2016-09-25T00:30:29.103Z,1006.25
2016-09-25T00:30:50.831Z,1006.07
2016-09-25T00:31:12.543Z,1006.08
2016-09-25T00:31:34.281Z,1006.13
2016-09-25T00:31:56.006Z,1006.00
2016-09-25T00:32:17.737Z,1005.92
2016-09-25T00:32:39.459Z,1006.07
2016-09-25T00:33:01.187Z,1006.02
2016-09-25T00:33:22.909Z,1006.03
2016-09-25T00:33:44.639Z,1006.30
2016-09-25T00:34:06.361Z,1006.20
2016-09-25T00:34:28.088Z,1006.19
2016-09-25T00:34:49.839Z,1006.15
2016-09-25T00:35:48.460Z,1006.00
2016-09-25T00:36:14.761Z,1006.05
2016-09-25T00:36:36.512Z,1006.05
2016-09-25T00:36:58.236Z,1006.02
2016-09-25T00:37:19.981Z,1006.11
2016-09-25T00:37:41.715Z,1005.86
2016-09-25T00:38:03.456Z,1006.04
2016-09-25T00:38:25.187Z,1006.06
2016-09-25T00:38:46.918Z,1006.17
2016-09-25T00:39:08.687Z,1006.02
2016-09-25T00:39:30.412Z,1005.96
2016-09-25T00:39:52.128Z,1006.01
2016-09-25T00:40:14.079Z,1006.03
2016-09-25T00:40:35.824Z,1006.13
2016-09-25T00:40:57.555Z,1006.21
2016-09-25T00:41:19.318Z,1006.32
2016-09-25T00:41:41.065Z,1006.21
2016-09-25T00:42:02.777Z,1005.94
2016-09-25T00:42:24.505Z,1006.09
2016-09-25T00:42:46.269Z,1006.11
2016-09-25T00:43:07.992Z,1006.09
2016-09-25T00:43:29.733Z,1006.11
2016-09-25T00:43:51.458Z,1006.09
2016-09-25T00:44:13.180Z,1006.04
2016-09-25T00:44:39.664Z,1006.04
2016-09-25T00:45:01.398Z,1006.08
2016-09-25T00:45:23.132Z,1006.04
2016-09-25T00:45:44.873Z,1006.04
2016-09-25T00:46:06.627Z,1006.09
2016-09-25T00:46:28.403Z,1006.01
2016-09-25T00:46:50.195Z,1006.05
2016-09-25T00:47:11.932Z,1006.11
2016-09-25T00:47:33.658Z,1005.98
2016-09-25T00:47:55.391Z,1005.78
2016-09-25T00:48:17.127Z,1005.83
2016-09-25T00:48:38.863Z,1005.83
2016-09-25T00:49:00.582Z,1005.87
2016-09-25T00:49:22.358Z,1006.22
2016-09-25T00:49:44.153Z,1006.08
2016-09-25T00:50:05.939Z,1006.02
2016-09-25T00:50:27.670Z,1005.80
2016-09-25T00:50:49.391Z,1005.93
2016-09-25T00:51:11.129Z,1005.91
2016-09-25T00:51:32.860Z,1006.04
2016-09-25T00:51:54.628Z,1006.08
2016-09-25T00:52:16.361Z,1005.98
2016-09-25T00:52:38.128Z,1005.99
2016-09-25T00:52:59.875Z,1005.95
2016-09-25T00:53:21.606Z,1005.96
2016-09-25T00:53:43.333Z,1006.05
2016-09-25T00:54:05.075Z,1006.15
2016-09-25T00:54:26.825Z,1005.89
2016-09-25T00:54:48.563Z,1005.85
2016-09-25T00:55:10.287Z,1005.94
2016-09-25T00:55:32.025Z,1006.03
2016-09-25T00:55:53.753Z,1006.02
2016-09-25T00:56:15.500Z,1005.98
2016-09-25T00:56:37.279Z,1005.92
2016-09-25T00:56:59.090Z,1005.92
2016-09-25T00:57:20.826Z,1006.10
2016-09-25T00:57:42.582Z,1006.06
2016-09-25T00:58:04.310Z,1005.90
2016-09-25T00:58:30.832Z,1006.07
2016-09-25T00:58:53.553Z,1006.09
2016-09-25T00:59:15.279Z,1006.03
2016-09-25T00:59:37.027Z,1005.94
2016-09-25T00:59:58.751Z,1006.03
2016-09-25T01:00:20.482Z,1005.97
2016-09-25T01:00:42.227Z,1006.01
2016-09-25T01:01:04.953Z,1006.07
2016-09-25T01:01:26.677Z,1005.96
2016-09-25T01:01:48.405Z,1005.97
2016-09-25T01:02:10.136Z,1005.93
2016-09-25T01:02:31.926Z,1005.92
2016-09-25T01:02:53.647Z,1005.75
2016-09-25T01:03:15.401Z,1005.84
2016-09-25T01:03:37.147Z,1005.95
2016-09-25T01:04:03.656Z,1005.71
2016-09-25T01:04:30.178Z,1005.86
2016-09-25T01:04:51.925Z,1005.87
2016-09-25T01:05:13.663Z,1006.07
2016-09-25T01:05:35.410Z,1006.05
2016-09-25T01:05:57.177Z,1005.94
2016-09-25T01:06:19.900Z,1005.88
2016-09-25T01:06:46.428Z,1005.99
2016-09-25T01:07:08.187Z,1005.92
2016-09-25T01:07:29.932Z,1005.88
2016-09-25T01:07:51.663Z,1005.77
2016-09-25T01:08:13.388Z,1005.89
2016-09-25T01:08:35.151Z,1005.93
2016-09-25T01:09:02.639Z,1005.98
2016-09-25T01:09:24.370Z,1005.85
2016-09-25T01:09:46.118Z,1005.84
2016-09-25T01:10:07.835Z,1006.07
2016-09-25T01:10:29.566Z,1005.83
2016-09-25T01:10:51.337Z,1005.96
2016-09-25T01:11:13.065Z,1005.72
2016-09-25T01:11:34.799Z,1005.93
2016-09-25T01:11:56.542Z,1005.90
2016-09-25T01:12:18.283Z,1006.10
2016-09-25T01:12:40.021Z,1006.08
2016-09-25T01:13:01.849Z,1005.96
2016-09-25T01:13:23.589Z,1005.81
2016-09-25T01:13:45.324Z,1005.74
2016-09-25T01:14:07.048Z,1005.83
2016-09-25T01:14:28.773Z,1005.94
2016-09-25T01:14:50.502Z,1005.89
2016-09-25T01:15:12.242Z,1005.82
2016-09-25T01:15:33.969Z,1006.01
2016-09-25T01:15:56.722Z,1006.03
2016-09-25T01:16:18.450Z,1006.00
2016-09-25T01:16:40.177Z,1005.93
2016-09-25T01:17:01.897Z,1005.77
2016-09-25T01:17:23.618Z,1005.80
2016-09-25T01:17:45.378Z,1005.79
2016-09-25T01:18:07.167Z,1005.79
2016-09-25T01:18:29.900Z,1005.75
2016-09-25T01:18:51.626Z,1005.81
2016-09-25T01:19:13.480Z,1005.74
2016-09-25T01:19:35.231Z,1005.78
2016-09-25T01:19:57.000Z,1005.93
2016-09-25T01:20:18.718Z,1005.87
2016-09-25T01:20:40.467Z,1006.00
2016-09-25T01:21:02.181Z,1006.02
2016-09-25T01:21:23.928Z,1005.73
2016-09-25T01:21:45.663Z,1005.79
2016-09-25T01:22:07.378Z,1005.78
2016-09-25T01:22:29.115Z,1006.30
2016-09-25T01:22:50.892Z,1006.34
2016-09-25T01:23:12.617Z,1006.03
2016-09-25T01:23:34.388Z,1006.15
2016-09-25T01:23:56.126Z,1006.08
2016-09-25T01:24:17.854Z,1006.16
2016-09-25T01:24:39.602Z,1006.03
2016-09-25T01:25:01.345Z,1006.11
2016-09-25T01:25:23.074Z,1006.07
2016-09-25T01:25:44.855Z,1006.10
2016-09-25T01:26:06.517Z,1006.05
2016-09-25T01:26:28.243Z,1005.93
2016-09-25T01:26:50.002Z,1005.91
2016-09-25T01:27:11.726Z,1005.62
2016-09-25T01:27:33.445Z,1005.84
2016-09-25T01:27:55.195Z,1005.57
2016-09-25T01:28:16.923Z,1005.87
2016-09-25T01:28:41.467Z,1006.18
2016-09-25T01:29:03.195Z,1006.16
2016-09-25T01:29:25.061Z,1005.94
2016-09-25T01:29:46.827Z,1006.00
2016-09-25T01:30:08.542Z,1005.81
2016-09-25T01:30:30.261Z,1005.82
2016-09-25T01:30:51.995Z,1005.79
2016-09-25T01:31:13.726Z,1006.23
2016-09-25T01:31:35.474Z,1006.03
2016-09-25T01:31:57.215Z,1005.87
2016-09-25T01:32:18.958Z,1005.69
2016-09-25T01:32:45.454Z,1005.93
2016-09-25T01:33:08.187Z,1006.00
2016-09-25T01:33:29.992Z,1005.78
2016-09-25T01:33:51.720Z,1005.81
2016-09-25T01:34:13.454Z,1005.96
2016-09-25T01:34:35.189Z,1005.86
2016-09-25T01:34:56.913Z,1005.90
2016-09-25T01:35:18.648Z,1005.81
2016-09-25T01:35:40.391Z,1006.11
2016-09-25T01:36:02.120Z,1006.04
2016-09-25T01:36:24.837Z,1006.21
2016-09-25T01:36:49.410Z,1006.18
2016-09-25T01:37:11.175Z,1006.03
2016-09-25T01:37:32.904Z,1006.08
2016-09-25T01:37:54.631Z,1005.94
2016-09-25T01:38:16.347Z,1005.87
2016-09-25T01:38:38.069Z,1005.82
2016-09-25T01:39:00.791Z,1005.67
2016-09-25T01:39:22.516Z,1005.78
2016-09-25T01:39:44.273Z,1005.67
2016-09-25T01:40:32.504Z,1005.69
2016-09-25T01:40:54.248Z,1005.70
2016-09-25T01:41:15.972Z,1006.07
2016-09-25T01:41:40.238Z,1006.13
2016-09-25T01:42:01.979Z,1005.96
2016-09-25T01:42:23.710Z,1005.90
2016-09-25T01:42:45.432Z,1005.88
2016-09-25T01:43:07.150Z,1005.96
2016-09-25T01:43:28.878Z,1005.90
2016-09-25T01:43:50.603Z,1005.88
2016-09-25T01:44:12.347Z,1005.98
2016-09-25T01:44:34.088Z,1005.88
2016-09-25T01:44:55.812Z,1005.63
2016-09-25T01:45:17.531Z,1005.73
2016-09-25T01:45:39.250Z,1005.82
2016-09-25T01:46:00.984Z,1006.15
2016-09-25T01:46:22.714Z,1005.98
2016-09-25T01:46:44.456Z,1006.07
2016-09-25T01:47:06.196Z,1006.02
2016-09-25T01:47:27.908Z,1005.84
2016-09-25T01:47:49.642Z,1005.87
2016-09-25T01:48:11.366Z,1005.86
2016-09-25T01:48:33.147Z,1006.01
2016-09-25T01:48:54.871Z,1005.68
2016-09-25T01:49:16.599Z,1005.76
2016-09-25T01:49:38.322Z,1005.81
2016-09-25T01:50:00.091Z,1005.63
2016-09-25T01:50:21.853Z,1005.89
2016-09-25T01:50:43.572Z,1005.93
2016-09-25T01:51:08.212Z,1005.89
2016-09-25T01:51:29.940Z,1005.88
2016-09-25T01:51:51.674Z,1005.71
2016-09-25T01:52:13.403Z,1005.87
2016-09-25T01:52:35.140Z,1005.92
2016-09-25T01:52:56.867Z,1005.87
2016-09-25T01:53:18.597Z,1005.88
2016-09-25T01:53:40.331Z,1005.82
2016-09-25T01:54:02.061Z,1005.82
2016-09-25T01:54:23.792Z,1005.83
2016-09-25T01:54:45.546Z,1005.78
2016-09-25T01:55:07.275Z,1005.84
2016-09-25T01:55:29.015Z,1005.69
2016-09-25T01:55:55.568Z,1005.72
2016-09-25T01:56:17.297Z,1005.94
2016-09-25T01:56:39.038Z,1005.77
2016-09-25T01:57:00.772Z,1005.68
2016-09-25T01:57:27.267Z,1005.72
2016-09-25T01:57:48.996Z,1005.75
2016-09-25T01:58:10.722Z,1005.88
2016-09-25T01:58:32.465Z,1006.05
2016-09-25T01:58:54.205Z,1006.07
2016-09-25T01:59:15.936Z,1005.96
2016-09-25T01:59:37.652Z,1006.21
2016-09-25T01:59:59.361Z,1006.09
2016-09-25T02:00:21.162Z,1006.06
2016-09-25T02:00:42.878Z,1005.86
2016-09-25T02:01:04.605Z,1005.70
2016-09-25T02:01:26.349Z,1005.79
2016-09-25T02:01:48.128Z,1005.73
2016-09-25T02:02:09.835Z,1006.03
2016-09-25T02:02:58.148Z,1005.71
2016-09-25T02:03:19.914Z,1005.64
2016-09-25T02:03:41.642Z,1005.83
2016-09-25T02:04:03.396Z,1005.72
2016-09-25T02:04:25.161Z,1005.86
2016-09-25T02:04:46.948Z,1005.89
2016-09-25T02:05:08.698Z,1006.12
2016-09-25T02:05:30.459Z,1005.96
2016-09-25T02:05:52.198Z,1005.83
2016-09-25T02:06:13.933Z,1005.86
2016-09-25T02:06:35.661Z,1005.92
2016-09-25T02:06:57.395Z,1005.86
2016-09-25T02:07:19.128Z,1005.79
2016-09-25T02:07:40.884Z,1005.91
2016-09-25T02:08:02.705Z,1005.91
2016-09-25T02:08:24.518Z,1005.85
2016-09-25T02:08:46.254Z,1005.86
2016-09-25T02:09:08.052Z,1005.78
2016-09-25T02:09:29.796Z,1005.70
2016-09-25T02:09:51.536Z,1005.99
2016-09-25T02:10:14.296Z,1005.75
2016-09-25T02:10:36.026Z,1006.23
2016-09-25T02:10:57.786Z,1006.05
2016-09-25T02:11:19.488Z,1006.15
2016-09-25T02:11:41.223Z,1005.94
2016-09-25T02:12:02.953Z,1005.64
2016-09-25T02:12:24.701Z,1005.65
2016-09-25T02:12:46.436Z,1005.78
2016-09-25T02:13:08.157Z,1005.87
2016-09-25T02:13:29.892Z,1005.93
2016-09-25T02:13:51.649Z,1005.88
2016-09-25T02:14:13.447Z,1005.87
2016-09-25T02:14:35.174Z,1005.98
2016-09-25T02:14:56.903Z,1005.99
2016-09-25T02:15:18.641Z,1005.89
2016-09-25T02:15:40.365Z,1005.59
2016-09-25T02:16:02.106Z,1005.59
2016-09-25T02:16:23.831Z,1005.95
2016-09-25T02:16:45.603Z,1005.96
2016-09-25T02:17:07.364Z,1005.72
2016-09-25T02:17:29.118Z,1005.74
2016-09-25T02:17:50.835Z,1005.94
2016-09-25T02:18:12.566Z,1005.67
2016-09-25T02:19:00.788Z,1006.32
2016-09-25T02:19:22.538Z,1006.26
2016-09-25T02:19:44.348Z,1005.78
2016-09-25T02:20:06.083Z,1005.67
2016-09-25T02:20:27.840Z,1005.68
2016-09-25T02:20:49.604Z,1005.78
2016-09-25T02:21:11.335Z,1006.00
2016-09-25T02:21:33.069Z,1006.04
2016-09-25T02:21:54.794Z,1006.04
2016-09-25T02:22:16.522Z,1006.05
2016-09-25T02:22:38.253Z,1005.94
2016-09-25T02:22:59.993Z,1005.87
2016-09-25T02:23:21.783Z,1005.83
2016-09-25T02:23:43.504Z,1005.77
2016-09-25T02:24:05.323Z,1005.83
2016-09-25T02:24:27.050Z,1005.69
2016-09-25T02:24:48.777Z,1005.84
2016-09-25T02:25:10.521Z,1005.74
2016-09-25T02:25:32.302Z,1005.67
2016-09-25T02:25:54.043Z,1006.01
2016-09-25T02:26:18.666Z,1006.03
2016-09-25T02:26:40.429Z,1005.88
2016-09-25T02:27:02.174Z,1005.79
2016-09-25T02:27:23.917Z,1005.92
2016-09-25T02:27:45.703Z,1005.94
2016-09-25T02:28:07.411Z,1006.00
2016-09-25T02:28:29.146Z,1005.97
2016-09-25T02:28:50.906Z,1005.73
2016-09-25T02:29:12.656Z,1005.72
2016-09-25T02:29:34.383Z,1005.48
2016-09-25T02:29:56.169Z,1005.57
2016-09-25T02:30:17.943Z,1005.89
2016-09-25T02:30:39.690Z,1005.96
2016-09-25T02:31:01.482Z,1005.91
2016-09-25T02:31:23.206Z,1005.85
2016-09-25T02:31:44.976Z,1005.77
2016-09-25T02:32:07.694Z,1005.76
2016-09-25T02:32:29.444Z,1005.84
2016-09-25T02:32:51.193Z,1005.84
2016-09-25T02:33:12.918Z,1005.94
2016-09-25T02:33:34.644Z,1005.95
2016-09-25T02:33:56.393Z,1005.66
2016-09-25T02:34:18.148Z,1005.70
2016-09-25T02:34:39.873Z,1005.51
2016-09-25T02:35:01.594Z,1005.58
2016-09-25T02:35:23.552Z,1005.58
2016-09-25T02:35:45.310Z,1005.68
2016-09-25T02:36:07.049Z,1005.67
2016-09-25T02:36:28.796Z,1005.80
2016-09-25T02:36:50.567Z,1005.75
2016-09-25T02:37:12.347Z,1005.85
2016-09-25T02:37:34.074Z,1006.02
2016-09-25T02:37:55.786Z,1005.84
2016-09-25T02:38:17.529Z,1005.77
2016-09-25T02:38:39.284Z,1005.83
2016-09-25T02:39:01.018Z,1005.76
2016-09-25T02:39:22.739Z,1005.62
2016-09-25T02:39:44.531Z,1005.72
2016-09-25T02:40:06.260Z,1005.68
2016-09-25T02:40:27.990Z,1005.59
2016-09-25T02:40:49.719Z,1005.73
2016-09-25T02:41:11.453Z,1005.78
2016-09-25T02:41:34.188Z,1005.86
2016-09-25T02:41:56.911Z,1005.85
2016-09-25T02:42:18.634Z,1005.80
2016-09-25T02:42:40.369Z,1005.82
2016-09-25T02:43:02.176Z,1005.95
2016-09-25T02:43:23.939Z,1005.71
2016-09-25T02:43:45.664Z,1005.78
2016-09-25T02:44:07.425Z,1005.85
2016-09-25T02:44:29.159Z,1005.72
2016-09-25T02:44:50.877Z,1005.65
2016-09-25T02:45:12.602Z,1005.56
2016-09-25T02:45:34.339Z,1005.44
2016-09-25T02:45:56.096Z,1005.53
2016-09-25T02:46:17.858Z,1005.70
2016-09-25T02:46:39.587Z,1005.76
2016-09-25T02:47:01.322Z,1005.85
2016-09-25T02:47:23.112Z,1005.75
2016-09-25T02:47:44.845Z,1005.82
2016-09-25T02:48:06.598Z,1005.66
2016-09-25T02:48:28.336Z,1005.52
2016-09-25T02:48:50.065Z,1005.55
2016-09-25T02:49:11.793Z,1005.69
2016-09-25T02:49:33.565Z,1005.87
2016-09-25T02:49:55.298Z,1005.87
2016-09-25T02:50:17.025Z,1005.80
2016-09-25T02:50:38.743Z,1005.72
2016-09-25T02:51:00.520Z,1006.07
2016-09-25T02:51:22.256Z,1005.81
2016-09-25T02:51:43.974Z,1005.76
2016-09-25T02:52:05.713Z,1005.64
2016-09-25T02:52:27.472Z,1005.65
2016-09-25T02:52:49.241Z,1005.78
2016-09-25T02:53:10.979Z,1005.81
2016-09-25T02:53:32.711Z,1005.73
2016-09-25T02:53:54.445Z,1005.77
2016-09-25T02:54:16.208Z,1005.83
2016-09-25T02:54:42.714Z,1005.78
2016-09-25T02:55:04.441Z,1005.77
2016-09-25T02:55:26.157Z,1005.68
2016-09-25T02:55:47.908Z,1005.87
2016-09-25T02:56:09.610Z,1005.84
2016-09-25T02:56:31.348Z,1005.83
2016-09-25T02:56:53.084Z,1005.63
2016-09-25T02:57:14.809Z,1005.54
2016-09-25T02:57:36.532Z,1005.67
2016-09-25T02:57:58.269Z,1005.77
2016-09-25T02:58:19.996Z,1005.55
2016-09-25T02:58:41.735Z,1005.68
2016-09-25T02:59:03.456Z,1005.95
2016-09-25T02:59:25.223Z,1005.85
2016-09-25T02:59:46.963Z,1005.99
2016-09-25T03:00:08.681Z,1005.91
2016-09-25T03:00:30.432Z,1005.90
2016-09-25T03:00:52.157Z,1005.87
2016-09-25T03:01:13.900Z,1005.86
2016-09-25T03:01:35.619Z,1005.75
2016-09-25T03:01:57.373Z,1005.77
2016-09-25T03:02:19.114Z,1005.77
2016-09-25T03:02:40.842Z,1005.84
2016-09-25T03:03:02.572Z,1006.02
2016-09-25T03:03:24.323Z,1006.07
2016-09-25T03:03:46.052Z,1005.85
2016-09-25T03:04:07.810Z,1005.71
2016-09-25T03:04:29.571Z,1005.61
2016-09-25T03:04:51.283Z,1005.67
2016-09-25T03:05:13.079Z,1005.71
2016-09-25T03:05:34.819Z,1005.77
2016-09-25T03:05:56.554Z,1005.69
2016-09-25T03:06:18.301Z,1005.64
2016-09-25T03:06:40.070Z,1005.74
2016-09-25T03:07:01.894Z,1005.81
2016-09-25T03:07:23.660Z,1005.57
2016-09-25T03:07:45.389Z,1005.65
2016-09-25T03:08:07.120Z,1005.81
2016-09-25T03:08:28.841Z,1005.89
2016-09-25T03:08:51.594Z,1006.13
2016-09-25T03:09:13.319Z,1005.74
2016-09-25T03:09:35.053Z,1005.63
2016-09-25T03:09:56.772Z,1005.83
2016-09-25T03:10:18.511Z,1005.89
2016-09-25T03:10:40.233Z,1005.82
2016-09-25T03:11:04.896Z,1005.94
2016-09-25T03:11:26.620Z,1005.97
2016-09-25T03:11:48.374Z,1005.86
2016-09-25T03:12:11.111Z,1005.76
2016-09-25T03:12:32.887Z,1005.66
2016-09-25T03:12:55.645Z,1005.86
2016-09-25T03:13:17.430Z,1005.92
2016-09-25T03:13:39.193Z,1005.75
2016-09-25T03:14:00.922Z,1005.70
2016-09-25T03:14:22.655Z,1005.79
2016-09-25T03:14:44.404Z,1005.86
2016-09-25T03:15:06.169Z,1005.88
2016-09-25T03:15:27.904Z,1005.88
2016-09-25T03:15:49.660Z,1005.67
2016-09-25T03:16:11.437Z,1005.54
2016-09-25T03:16:33.180Z,1005.74
2016-09-25T03:16:54.900Z,1005.71
2016-09-25T03:17:16.646Z,1005.61
2016-09-25T03:17:38.371Z,1005.75
2016-09-25T03:18:00.090Z,1005.79
2016-09-25T03:18:21.814Z,1005.68
2016-09-25T03:18:43.564Z,1006.04
2016-09-25T03:19:05.322Z,1006.03
2016-09-25T03:19:27.046Z,1005.86
2016-09-25T03:19:48.784Z,1005.76
2016-09-25T03:20:10.502Z,1005.73
2016-09-25T03:20:32.237Z,1005.84
2016-09-25T03:20:53.961Z,1005.94
2016-09-25T03:21:15.690Z,1005.94
2016-09-25T03:21:37.437Z,1005.84
2016-09-25T03:21:59.167Z,1006.00
2016-09-25T03:22:20.892Z,1005.90
2016-09-25T03:22:42.605Z,1005.55
2016-09-25T03:23:04.364Z,1005.34
2016-09-25T03:23:26.189Z,1005.57
2016-09-25T03:23:47.910Z,1005.93
2016-09-25T03:24:09.655Z,1005.78
2016-09-25T03:24:31.386Z,1005.72
2016-09-25T03:24:53.114Z,1005.67
2016-09-25T03:25:14.835Z,1005.63
2016-09-25T03:25:36.595Z,1005.60
2016-09-25T03:25:58.320Z,1005.55
2016-09-25T03:26:20.044Z,1005.66
2016-09-25T03:26:41.789Z,1005.66
2016-09-25T03:27:03.565Z,1005.66
2016-09-25T03:27:25.296Z,1005.65
2016-09-25T03:27:47.017Z,1005.78
2016-09-25T03:28:08.768Z,1005.79
2016-09-25T03:28:30.486Z,1005.91
2016-09-25T03:28:52.214Z,1005.73
2016-09-25T03:29:13.951Z,1005.69
2016-09-25T03:29:35.680Z,1005.76
2016-09-25T03:29:57.401Z,1005.69
2016-09-25T03:30:19.126Z,1005.74
2016-09-25T03:30:40.850Z,1005.70
2016-09-25T03:31:02.587Z,1005.68
2016-09-25T03:31:24.326Z,1005.58
2016-09-25T03:31:46.099Z,1005.68
2016-09-25T03:32:07.823Z,1005.58
2016-09-25T03:32:29.564Z,1005.68
2016-09-25T03:32:51.297Z,1005.58
2016-09-25T03:33:13.029Z,1005.69
2016-09-25T03:33:34.790Z,1005.64
2016-09-25T03:33:56.518Z,1005.69
2016-09-25T03:34:18.237Z,1005.65
2016-09-25T03:34:39.955Z,1005.62
2016-09-25T03:35:01.879Z,1006.00
2016-09-25T03:35:23.596Z,1006.00
2016-09-25T03:35:45.353Z,1005.76
2016-09-25T03:36:07.056Z,1005.77
2016-09-25T03:36:28.819Z,1005.87
2016-09-25T03:36:50.557Z,1005.75
2016-09-25T03:37:17.053Z,1005.82
2016-09-25T03:37:38.794Z,1005.45
2016-09-25T03:38:05.316Z,1005.61
2016-09-25T03:38:27.069Z,1005.89
2016-09-25T03:38:48.809Z,1006.00
2016-09-25T03:39:10.548Z,1005.90
2016-09-25T03:39:32.323Z,1005.63
2016-09-25T03:39:54.043Z,1005.71
2016-09-25T03:40:15.817Z,1005.68
2016-09-25T03:40:37.562Z,1005.79
2016-09-25T03:40:59.341Z,1005.76
2016-09-25T03:41:21.072Z,1005.57
2016-09-25T03:41:42.804Z,1005.43
2016-09-25T03:42:04.543Z,1005.65
2016-09-25T03:42:26.294Z,1005.69
2016-09-25T03:42:48.026Z,1005.54
2016-09-25T03:43:09.744Z,1005.61
2016-09-25T03:43:31.485Z,1005.56
2016-09-25T03:43:53.207Z,1005.67
2016-09-25T03:44:14.947Z,1005.56
2016-09-25T03:44:36.666Z,1005.53
2016-09-25T03:45:03.168Z,1005.58
2016-09-25T03:45:24.895Z,1005.51
2016-09-25T03:45:46.838Z,1005.42
2016-09-25T03:46:08.614Z,1005.74
2016-09-25T03:46:30.476Z,1005.71
2016-09-25T03:46:52.215Z,1005.66
2016-09-25T03:47:18.738Z,1005.75
2016-09-25T03:47:40.477Z,1005.69
2016-09-25T03:48:02.262Z,1005.71
2016-09-25T03:48:23.985Z,1005.70
2016-09-25T03:48:45.718Z,1005.64
2016-09-25T03:49:08.438Z,1005.58
2016-09-25T03:49:30.179Z,1005.48
2016-09-25T03:49:51.896Z,1005.41
2016-09-25T03:50:13.612Z,1005.58
2016-09-25T03:50:35.348Z,1005.32
2016-09-25T03:50:57.120Z,1005.43
2016-09-25T03:51:18.838Z,1005.67
2016-09-25T03:51:40.567Z,1005.73
2016-09-25T03:52:02.287Z,1005.64
2016-09-25T03:52:24.012Z,1005.46
2016-09-25T03:52:45.739Z,1005.58
2016-09-25T03:53:07.503Z,1005.74
2016-09-25T03:53:29.235Z,1005.63
2016-09-25T03:53:50.947Z,1005.54
2016-09-25T03:54:12.660Z,1005.70
2016-09-25T03:54:34.374Z,1005.65
2016-09-25T03:55:00.869Z,1005.63
2016-09-25T03:55:22.626Z,1005.67
2016-09-25T03:55:44.342Z,1005.61
2016-09-25T03:56:06.088Z,1005.79
2016-09-25T03:56:27.855Z,1005.65
2016-09-25T03:56:49.580Z,1005.43
2016-09-25T03:57:11.298Z,1005.41
2016-09-25T03:57:33.026Z,1005.37
2016-09-25T03:58:00.515Z,1005.59
2016-09-25T03:58:49.740Z,1005.45
2016-09-25T03:59:11.469Z,1005.57
2016-09-25T03:59:33.195Z,1005.50
2016-09-25T03:59:54.914Z,1005.61
2016-09-25T04:00:16.646Z,1005.66
2016-09-25T04:00:38.370Z,1005.73
2016-09-25T04:01:00.091Z,1005.64
2016-09-25T04:01:21.900Z,1005.64
2016-09-25T04:01:43.611Z,1005.93
2016-09-25T04:02:05.336Z,1005.86
2016-09-25T04:02:27.077Z,1005.84
2016-09-25T04:02:48.811Z,1005.77
2016-09-25T04:03:10.540Z,1005.72
2016-09-25T04:03:32.284Z,1005.49
2016-09-25T04:03:54.011Z,1005.52
2016-09-25T04:04:15.781Z,1005.64
2016-09-25T04:04:37.515Z,1005.80
2016-09-25T04:04:59.250Z,1005.81
2016-09-25T04:05:20.990Z,1005.75
2016-09-25T04:05:42.709Z,1005.72
2016-09-25T04:06:04.436Z,1005.67
2016-09-25T04:06:26.181Z,1005.57
2016-09-25T04:06:47.982Z,1005.50
2016-09-25T04:07:09.718Z,1005.39
2016-09-25T04:07:31.483Z,1005.42
2016-09-25T04:07:53.208Z,1005.74
2016-09-25T04:08:14.937Z,1005.84
2016-09-25T04:08:36.648Z,1005.67
2016-09-25T04:08:58.373Z,1005.60
2016-09-25T04:09:20.101Z,1005.42
2016-09-25T04:09:41.857Z,1005.19
2016-09-25T04:10:03.583Z,1005.48
2016-09-25T04:10:25.313Z,1005.44
2016-09-25T04:10:47.041Z,1005.69
2016-09-25T04:11:09.796Z,1005.77
2016-09-25T04:11:31.538Z,1005.74
2016-09-25T04:11:53.278Z,1005.62
2016-09-25T04:12:15.039Z,1005.58
2016-09-25T04:12:36.787Z,1005.50
2016-09-25T04:12:58.507Z,1005.52
2016-09-25T04:13:46.744Z,1005.43
2016-09-25T04:14:40.568Z,1005.54
2016-09-25T04:15:02.280Z,1005.64
2016-09-25T04:15:23.995Z,1005.58
2016-09-25T04:15:45.717Z,1005.70
2016-09-25T04:16:07.426Z,1005.58
2016-09-25T04:16:29.166Z,1005.66
2016-09-25T04:16:50.919Z,1005.40
2016-09-25T04:17:12.674Z,1005.28
2016-09-25T04:17:34.421Z,1005.45
2016-09-25T04:17:56.145Z,1005.42
2016-09-25T04:18:17.899Z,1005.73
2016-09-25T04:18:39.631Z,1005.75
2016-09-25T04:19:01.355Z,1005.64
2016-09-25T04:19:23.080Z,1005.71
2016-09-25T04:19:44.811Z,1005.55
2016-09-25T04:20:06.533Z,1005.55
2016-09-25T04:20:28.254Z,1005.57
2016-09-25T04:20:50.046Z,1005.63
2016-09-25T04:21:11.752Z,1005.72
2016-09-25T04:21:33.470Z,1005.65
2016-09-25T04:21:55.195Z,1005.49
2016-09-25T04:22:17.912Z,1005.25
2016-09-25T04:22:39.679Z,1005.77
2016-09-25T04:23:01.425Z,1005.83
2016-09-25T04:23:23.182Z,1005.84
2016-09-25T04:23:44.904Z,1005.70
2016-09-25T04:24:06.631Z,1005.80
2016-09-25T04:24:28.363Z,1005.63
2016-09-25T04:24:50.117Z,1005.62
2016-09-25T04:25:11.857Z,1005.49
2016-09-25T04:25:33.583Z,1005.48
2016-09-25T04:25:55.323Z,1005.60
2016-09-25T04:26:17.061Z,1005.62
2016-09-25T04:26:38.789Z,1005.66
2016-09-25T04:27:00.537Z,1005.52
2016-09-25T04:27:22.274Z,1005.68
2016-09-25T04:27:43.999Z,1005.44
2016-09-25T04:28:05.717Z,1005.38
2016-09-25T04:28:27.432Z,1005.52
2016-09-25T04:28:49.154Z,1005.47
2016-09-25T04:29:10.881Z,1005.36
2016-09-25T04:29:33.624Z,1005.67
2016-09-25T04:29:55.352Z,1005.77